Share

Hang Nadim, Indonesia

Ocean Park (ICHAOYAN2) Elev 0 ft | 1.31 °N, 103.92 °E | Change Station

Current weather conditions updated 10 minutes ago

Mostly Cloudy
Mostly Cloudy
83.4 °F
Feels Like 96 °F
N
0.0
Wind Variable Wind from NNE
Gusts 0.0 mph
Sunrise 5:58 AM
Sunset 6:07 PM
Moon Waning Gibbous

Today is forecast to be nearly the same temperature as yesterday. Thunderstorms.

Pressure 29.83 in
Visibility 6.2 miles
Clouds Few 1800 ft
Mostly Cloudy 30000 ft
Heat Index 96 °F
Dew Point 80 °F
Humidity 90%
Rainfall 0.00 in
Snow Depth Not available.
UV 0 out of 16
Pollen Not available.
Air Quality Not available.
Flu Activity Not available.
METAR WSSS 171800Z 12004KT 9999 FEW018 BKN300 28/25 Q1010 NOSIG

More Conditions Fewer Conditions

Pressure 29.83 in
Visibility 6.2 miles
Clouds Few 1800 ft
Mostly Cloudy 30000 ft
Heat Index 96 °F
Dew Point 80 °F
Humidity 90%
Rainfall 0.00 in
Snow Depth Not available.
UV 0 out of 16
Pollen Not available.
Air Quality Not available.
Flu Activity Not available.
METAR WSSS 171800Z 12004KT 9999 FEW018 BKN300 28/25 Q1010 NOSIG

More Conditions Fewer Conditions

10-Day Forecast

Almanac

Astronomy

Apr. 18, 2014 Rise Set
Actual Time 5:58 AM WIT 6:07 PM WIT
Civil Twilight 5:37 AM WIT 6:28 PM WIT
Nautical Twilight 5:13 AM WIT 6:52 PM WIT
Astronomical Twilight 4:48 AM WIT 7:17 PM WIT
Moon 8:51 PM WIT (4/18) 8:19 AM WIT (4/18)
Length of Visible Light 12h 50m
Length of Day
12h 08m
Tomorrow will be 0m 4s longer.
Waning Gibbous, 93% of the Moon is Illuminated
Apr 17
Waning Gibbous
Apr 22
Last Quarter
Apr 29
New
May 6
First Quarter
May 14
Full

Yesterday's Extremes

Country Highs Country Lows

Community

  • New Day
    New Day
  • Lake Michigan Sunrise
    Lake Michigan Sunrise
  • sunset from izmir, narlıdere
    sunset from izmir, narlıdere
  • oregon cherry
    oregon cherry
  • Sunset over the Bay
    Sunset over the Bay

WunderPhotos

Upload Photos

1,702,091 photos uploaded!

Nearby

Snow Depth

Not available.

Coastal Water Temperatures

Place Temperature
No Stations Reporting

Earthquake Activity

City Distance Mag. Time & Date
No recent earthquake activity has been reported nearby.
Minimum magnitude displayed is 2.5.

Nearby Weather Stations

Station Location Temp. Heat Index Dew Point Humidity Wind Precip. Elev Updated Type
Ocean Park, Singapore 83.4 °F 96 °F 80 °F 90% NNE  at  0.0 mph 0.00 in / hr 0 ft 2:21 AM SGT Normal
Alexandra, Singapore 81.5 °F 90 °F 79 °F 92% SW  at  0.0 mph 0.00 in / hr 0 ft 2:16 AM SGT Normal

Show More Stations Show Fewer Stations

What do you think?

We're not finished. Please let us know what you like, what you don't like, and what you are still missing.